»·PEaware :: N16JL KASE-KSLC

N16JL :: KASE-KSLC

FLIGHT INFORMATION

Flight Status: Arrived
Operator: Privately registered:
United States
More flights under this callsign
Pilot: Luke O. (6875)
Aircraft: BOEING 737-800
(B738)
More flights by this aircraft type
Origin: KASE Aspen-Pitkin Co/Sardy
United States
Destination: KSLC Salt Lake City Intl
United States
More flights between these airports :: More routes between these airports
Route: +LINDZ8 EKR LEEHY5
File this flight plan on PilotEdge
Remarks:
Altitude:
(Current/Filed)
32,000ft
Speed:
(Current/Filed)
300kts
Departed: 01-Jan-18 06:29 PM
Arrived: 01-Jan-18 07:32 PM
Distance/Time
Traveled:
252nm/1:03
Distance/Time
To Go:
Arrived

Flight Plot

Page will automatically refresh every two minutes.

Flight plan parsing failed; only flown route is shown


Map Options




Map Legend


Flown Route
Filed Route
Departure Airport
Arrival Airport
Navaid (VOR, NDB)
Fix

Horizontal Profiles

Position Reports

Time Latitude Longitude Heading Altitude Ground
Speed
01-Jan-18 18:09 39.221150 -106.866231 249 7744ft 0kts
01-Jan-18 18:10 39.221150 -106.866231 249 7744ft 0kts
01-Jan-18 18:11 39.221150 -106.866232 249 7744ft 0kts
01-Jan-18 18:12 39.221150 -106.866232 249 7744ft 0kts
01-Jan-18 18:13 39.221150 -106.866232 249 7744ft 0kts
01-Jan-18 18:14 39.221150 -106.866232 249 7744ft 0kts
01-Jan-18 18:15 39.221150 -106.866232 249 7744ft 0kts
01-Jan-18 18:16 39.221150 -106.866232 249 7744ft 0kts
01-Jan-18 18:17 39.221150 -106.866232 249 7744ft 0kts
01-Jan-18 18:18 39.221150 -106.866232 249 7744ft 0kts
01-Jan-18 18:19 39.221150 -106.866232 249 7744ft 0kts
01-Jan-18 18:20 39.221150 -106.866232 249 7744ft 0kts
01-Jan-18 18:21 39.221150 -106.866232 249 7744ft 0kts
01-Jan-18 18:22 39.221150 -106.866232 249 7744ft 0kts
01-Jan-18 18:23 39.221150 -106.866232 249 7744ft 0kts
01-Jan-18 18:24 39.221150 -106.866232 249 7744ft 0kts
01-Jan-18 18:25 39.221150 -106.866232 249 7744ft 0kts
01-Jan-18 18:26 39.221150 -106.866232 249 7744ft 0kts
01-Jan-18 18:27 39.221150 -106.866232 249 7744ft 0kts
01-Jan-18 18:28 39.221150 -106.866232 249 7744ft 0kts
01-Jan-18 18:29 39.219595 -106.866012 159 7744ft 7kts
01-Jan-18 18:30 39.217457 -106.864999 158 7744ft 12kts
01-Jan-18 18:31 39.213641 -106.863160 159 7744ft 17kts
01-Jan-18 18:32 39.212309 -106.862539 171 7744ft 0kts
01-Jan-18 18:33 39.212307 -106.862539 171 7744ft 0kts
01-Jan-18 18:34 39.211955 -106.862620 212 7744ft 11kts
01-Jan-18 18:35 39.220942 -106.867854 339 7746ft 151kts
01-Jan-18 18:36 39.279203 -106.892713 322 9839ft 260kts
01-Jan-18 18:37 39.306449 -106.984063 281 12577ft 304kts
01-Jan-18 18:38 39.340439 -107.088200 306 16040ft 332kts
01-Jan-18 18:39 39.376813 -107.194835 261 19430ft 345kts
01-Jan-18 18:40 39.357403 -107.319227 256 21026ft 359kts
01-Jan-18 18:41 39.333494 -107.442298 256 25127ft 337kts
01-Jan-18 18:42 39.312194 -107.561851 270 27836ft 350kts
01-Jan-18 18:43 39.371152 -107.656773 335 30053ft 379kts
01-Jan-18 18:44 39.474311 -107.698176 339 31935ft 396kts
01-Jan-18 18:45 39.579963 -107.739236 340 31996ft 394kts
01-Jan-18 18:46 39.685151 -107.779065 339 31996ft 394kts
01-Jan-18 18:47 39.790687 -107.819083 340 31996ft 394kts
01-Jan-18 18:48 39.895794 -107.859100 339 31996ft 394kts
01-Jan-18 18:49 40.001221 -107.899507 339 31996ft 394kts
01-Jan-18 18:50 40.068324 -107.996461 278 32001ft 377kts
01-Jan-18 18:51 40.076654 -108.132602 272 31996ft 376kts
01-Jan-18 18:52 40.082565 -108.269415 272 31996ft 376kts
01-Jan-18 18:53 40.088469 -108.405758 273 31997ft 376kts
01-Jan-18 18:54 40.094724 -108.542023 272 31996ft 376kts
01-Jan-18 18:55 40.100301 -108.678788 272 31996ft 376kts
01-Jan-18 18:56 40.105530 -108.815129 272 31996ft 376kts
01-Jan-18 18:57 40.110684 -108.951872 272 31995ft 376kts
01-Jan-18 18:58 40.115571 -109.088199 272 31997ft 376kts
01-Jan-18 18:59 40.120259 -109.224477 272 31996ft 376kts
01-Jan-18 19:00 40.125040 -109.362706 272 29024ft 397kts
01-Jan-18 19:01 40.130241 -109.508430 272 25489ft 404kts
01-Jan-18 19:02 40.134942 -109.651376 272 24121ft 389kts
01-Jan-18 19:03 40.139664 -109.793552 272 23995ft 388kts
01-Jan-18 19:04 40.143522 -109.924060 271 23999ft 362kts
01-Jan-18 19:05 40.147427 -110.065826 271 23997ft 400kts
01-Jan-18 19:06 40.148932 -110.210867 268 23996ft 400kts
01-Jan-18 19:07 40.147163 -110.355946 268 23996ft 400kts
01-Jan-18 19:08 40.145449 -110.501538 268 23996ft 400kts
01-Jan-18 19:09 40.144010 -110.646652 269 23996ft 400kts
01-Jan-18 19:10 40.142522 -110.787281 268 23281ft 361kts
01-Jan-18 19:11 40.141230 -110.911401 268 22278ft 328kts
01-Jan-18 19:12 40.139465 -111.029800 268 21279ft 327kts
01-Jan-18 19:13 40.137527 -111.147833 268 20276ft 321kts
01-Jan-18 19:14 40.135748 -111.263484 268 19276ft 316kts
01-Jan-18 19:15 40.133764 -111.377661 268 18996ft 315kts
01-Jan-18 19:16 40.131922 -111.473258 268 18996ft 315kts
01-Jan-18 19:17 40.150325 -111.602414 293 18924ft 315kts
01-Jan-18 19:18 40.182268 -111.688571 293 18199ft 314kts
01-Jan-18 19:19 40.226191 -111.807566 293 17670ft 311kts
01-Jan-18 19:20 40.263543 -111.908491 294 16761ft 306kts
01-Jan-18 19:21 40.295921 -111.992905 293 16101ft 311kts
01-Jan-18 19:22 40.345070 -112.105869 317 15451ft 313kts
01-Jan-18 19:23 40.416130 -112.110877 28 14911ft 337kts
01-Jan-18 19:24 40.487843 -112.071915 355 13831ft 325kts
01-Jan-18 19:25 40.576613 -112.075805 355 12051ft 315kts
01-Jan-18 19:26 40.660769 -112.080952 353 10713ft 290kts
01-Jan-18 19:27 40.740435 -112.090573 354 10590ft 289kts
01-Jan-18 19:28 40.820867 -112.100110 354 10258ft 292kts
01-Jan-18 19:29 40.901673 -112.109703 353 9880ft 290kts
01-Jan-18 19:30 40.981300 -112.119218 354 9504ft 283kts
01-Jan-18 19:31 41.059091 -112.128470 355 9290ft 270kts
01-Jan-18 19:32 41.113776 -112.087017 86 8612ft 263kts
01-Jan-18 19:33 41.078289 -112.015537 168 8608ft 261kts
01-Jan-18 19:34 41.006272 -112.000215 177 8064ft 255kts
01-Jan-18 19:35 40.935534 -111.991769 174 6715ft 257kts
01-Jan-18 19:36 40.869822 -111.984104 174 5448ft 209kts
01-Jan-18 19:37 40.818311 -111.978116 174 4455ft 159kts
01-Jan-18 19:38 40.792682 -111.975217 175 4235ft 17kts
01-Jan-18 19:39 40.785808 -111.973139 109 4235ft 2kts
01-Jan-18 19:40 40.785392 -111.970280 83 4235ft 27kts
01-Jan-18 19:41 40.786673 -111.963102 78 4235ft 12kts
01-Jan-18 19:42 40.782978 -111.960001 180 4235ft 24kts
01-Jan-18 19:43 40.778397 -111.959129 91 4235ft 15kts
01-Jan-18 19:44 40.776145 -111.958453 133 4235ft 0kts
01-Jan-18 19:45 40.776145 -111.958453 133 4235ft 0kts
01-Jan-18 19:46 40.776145 -111.958453 133 4235ft 0kts
01-Jan-18 19:47 40.776145 -111.958453 133 4235ft 0kts
01-Jan-18 19:48 40.776145 -111.958453 133 4235ft 0kts
01-Jan-18 19:49 40.776145 -111.958453 133 4235ft 0kts
01-Jan-18 19:50 40.776145 -111.958453 133 4235ft 0kts
01-Jan-18 19:51 40.776145 -111.958453 133 4235ft 0kts
01-Jan-18 19:52 40.776145 -111.958453 133 4235ft 0kts
01-Jan-18 19:53 40.776145 -111.958453 133 4235ft 0kts

Navigation Log

Ident Type
Flight plan parsing failed, navigation log unavailable